sensor_id;sensor_type;location;lat;lon;timestamp;P1;durP1;ratioP1;P2;durP2;ratioP2
23555;SDS011;11956;53.184;8.578;2022-10-17T00:00:29;14.93;;;7.85;;
23555;SDS011;11956;53.184;8.578;2022-10-17T00:03:30;13.27;;;7.35;;
23555;SDS011;11956;53.184;8.578;2022-10-17T00:06:31;13.13;;;7.70;;
23555;SDS011;11956;53.184;8.578;2022-10-17T00:09:32;10.75;;;6.22;;
23555;SDS011;11956;53.184;8.578;2022-10-17T00:12:33;10.75;;;6.50;;
23555;SDS011;11956;53.184;8.578;2022-10-17T00:15:34;10.77;;;6.10;;
23555;SDS011;11956;53.184;8.578;2022-10-17T00:18:36;11.38;;;6.18;;
23555;SDS011;11956;53.184;8.578;2022-10-17T00:21:36;9.65;;;5.68;;
23555;SDS011;11956;53.184;8.578;2022-10-17T00:24:37;13.15;;;5.50;;
23555;SDS011;11956;53.184;8.578;2022-10-17T00:27:39;14.35;;;5.40;;
23555;SDS011;11956;53.184;8.578;2022-10-17T00:30:41;11.85;;;5.20;;
23555;SDS011;11956;53.184;8.578;2022-10-17T00:33:42;13.57;;;5.13;;
23555;SDS011;11956;53.184;8.578;2022-10-17T00:36:44;9.00;;;4.38;;
23555;SDS011;11956;53.184;8.578;2022-10-17T00:39:45;7.72;;;4.03;;
23555;SDS011;11956;53.184;8.578;2022-10-17T00:42:46;9.75;;;3.58;;
23555;SDS011;11956;53.184;8.578;2022-10-17T00:45:47;10.25;;;4.00;;
23555;SDS011;11956;53.184;8.578;2022-10-17T00:48:48;7.95;;;3.80;;
23555;SDS011;11956;53.184;8.578;2022-10-17T00:51:56;9.23;;;3.60;;
23555;SDS011;11956;53.184;8.578;2022-10-17T00:55:12;9.60;;;3.95;;
23555;SDS011;11956;53.184;8.578;2022-10-17T00:58:20;6.78;;;3.20;;
23555;SDS011;11956;53.184;8.578;2022-10-17T01:01:22;7.22;;;3.13;;
23555;SDS011;11956;53.184;8.578;2022-10-17T01:04:23;4.93;;;3.20;;
23555;SDS011;11956;53.184;8.578;2022-10-17T01:07:24;6.82;;;3.42;;
23555;SDS011;11956;53.184;8.578;2022-10-17T01:10:29;8.07;;;3.38;;
23555;SDS011;11956;53.184;8.578;2022-10-17T01:13:48;5.78;;;3.20;;
23555;SDS011;11956;53.184;8.578;2022-10-17T01:27:34;7.22;;;2.67;;
23555;SDS011;11956;53.184;8.578;2022-10-17T01:37:03;5.50;;;2.60;;
23555;SDS011;11956;53.184;8.578;2022-10-17T01:40:19;6.90;;;2.70;;
23555;SDS011;11956;53.184;8.578;2022-10-17T01:44:06;5.57;;;2.30;;
23555;SDS011;11956;53.184;8.578;2022-10-17T01:47:08;6.90;;;2.17;;
23555;SDS011;11956;53.184;8.578;2022-10-17T01:50:14;7.93;;;2.42;;
23555;SDS011;11956;53.184;8.578;2022-10-17T01:53:36;5.20;;;2.72;;
23555;SDS011;11956;53.184;8.578;2022-10-17T01:56:44;7.07;;;2.65;;
23555;SDS011;11956;53.184;8.578;2022-10-17T01:59:47;6.90;;;3.22;;
23555;SDS011;11956;53.184;8.578;2022-10-17T02:02:52;5.72;;;2.65;;
23555;SDS011;11956;53.184;8.578;2022-10-17T02:05:58;6.38;;;2.70;;
23555;SDS011;11956;53.184;8.578;2022-10-17T02:09:13;6.10;;;2.90;;
23555;SDS011;11956;53.184;8.578;2022-10-17T02:12:26;9.05;;;3.47;;
23555;SDS011;11956;53.184;8.578;2022-10-17T02:19:56;9.20;;;3.28;;
23555;SDS011;11956;53.184;8.578;2022-10-17T02:26:34;5.85;;;3.08;;
23555;SDS011;11956;53.184;8.578;2022-10-17T02:29:48;10.35;;;3.03;;
23555;SDS011;11956;53.184;8.578;2022-10-17T02:36:54;7.72;;;3.38;;
23555;SDS011;11956;53.184;8.578;2022-10-17T02:40:00;8.13;;;3.08;;
23555;SDS011;11956;53.184;8.578;2022-10-17T02:43:02;8.73;;;3.08;;
23555;SDS011;11956;53.184;8.578;2022-10-17T02:46:04;8.80;;;3.28;;
23555;SDS011;11956;53.184;8.578;2022-10-17T02:49:09;6.65;;;3.28;;
23555;SDS011;11956;53.184;8.578;2022-10-17T02:52:34;8.77;;;3.45;;
23555;SDS011;11956;53.184;8.578;2022-10-17T02:55:47;7.13;;;3.70;;
23555;SDS011;11956;53.184;8.578;2022-10-17T02:58:53;6.22;;;3.63;;
23555;SDS011;11956;53.184;8.578;2022-10-17T03:01:57;7.75;;;3.58;;
23555;SDS011;11956;53.184;8.578;2022-10-17T03:05:04;5.50;;;3.58;;
23555;SDS011;11956;53.184;8.578;2022-10-17T03:08:06;6.10;;;4.10;;
23555;SDS011;11956;53.184;8.578;2022-10-17T03:11:07;5.95;;;3.70;;
23555;SDS011;11956;53.184;8.578;2022-10-17T03:14:08;8.70;;;4.47;;
23555;SDS011;11956;53.184;8.578;2022-10-17T03:17:10;9.55;;;3.72;;
23555;SDS011;11956;53.184;8.578;2022-10-17T03:20:11;7.25;;;3.95;;
23555;SDS011;11956;53.184;8.578;2022-10-17T03:23:11;8.40;;;4.82;;
23555;SDS011;11956;53.184;8.578;2022-10-17T03:26:14;5.13;;;3.97;;
23555;SDS011;11956;53.184;8.578;2022-10-17T03:29:15;7.70;;;4.55;;
23555;SDS011;11956;53.184;8.578;2022-10-17T03:32:16;7.75;;;4.32;;
23555;SDS011;11956;53.184;8.578;2022-10-17T03:35:16;8.07;;;5.00;;
23555;SDS011;11956;53.184;8.578;2022-10-17T03:38:21;8.48;;;4.85;;
23555;SDS011;11956;53.184;8.578;2022-10-17T03:41:22;7.53;;;5.03;;
23555;SDS011;11956;53.184;8.578;2022-10-17T03:44:23;11.23;;;5.25;;
23555;SDS011;11956;53.184;8.578;2022-10-17T03:47:24;6.53;;;5.03;;
23555;SDS011;11956;53.184;8.578;2022-10-17T03:50:25;10.80;;;5.50;;
23555;SDS011;11956;53.184;8.578;2022-10-17T03:53:27;8.90;;;5.63;;
23555;SDS011;11956;53.184;8.578;2022-10-17T03:56:28;11.18;;;5.72;;
23555;SDS011;11956;53.184;8.578;2022-10-17T03:59:42;15.32;;;6.28;;
23555;SDS011;11956;53.184;8.578;2022-10-17T04:02:48;8.73;;;5.90;;
23555;SDS011;11956;53.184;8.578;2022-10-17T04:05:52;11.88;;;7.50;;
23555;SDS011;11956;53.184;8.578;2022-10-17T04:08:53;10.65;;;7.10;;
23555;SDS011;11956;53.184;8.578;2022-10-17T04:12:13;11.18;;;7.72;;
23555;SDS011;11956;53.184;8.578;2022-10-17T04:15:14;9.05;;;6.40;;
23555;SDS011;11956;53.184;8.578;2022-10-17T04:18:15;9.73;;;6.38;;
23555;SDS011;11956;53.184;8.578;2022-10-17T04:21:16;10.20;;;6.80;;
23555;SDS011;11956;53.184;8.578;2022-10-17T04:24:18;11.68;;;6.28;;
23555;SDS011;11956;53.184;8.578;2022-10-17T04:27:22;11.50;;;7.10;;
23555;SDS011;11956;53.184;8.578;2022-10-17T04:30:23;8.65;;;7.25;;
23555;SDS011;11956;53.184;8.578;2022-10-17T04:33:24;11.18;;;7.57;;
23555;SDS011;11956;53.184;8.578;2022-10-17T04:36:25;11.85;;;7.80;;
23555;SDS011;11956;53.184;8.578;2022-10-17T04:39:26;12.07;;;7.65;;
23555;SDS011;11956;53.184;8.578;2022-10-17T04:42:28;15.52;;;8.70;;
23555;SDS011;11956;53.184;8.578;2022-10-17T04:45:30;14.27;;;8.52;;
23555;SDS011;11956;53.184;8.578;2022-10-17T04:48:35;16.65;;;8.93;;
23555;SDS011;11956;53.184;8.578;2022-10-17T04:51:37;13.68;;;9.27;;
23555;SDS011;11956;53.184;8.578;2022-10-17T04:55:00;13.75;;;9.18;;
23555;SDS011;11956;53.184;8.578;2022-10-17T04:58:02;17.40;;;9.15;;
23555;SDS011;11956;53.184;8.578;2022-10-17T05:01:07;12.43;;;9.05;;
23555;SDS011;11956;53.184;8.578;2022-10-17T05:04:14;10.82;;;8.48;;
23555;SDS011;11956;53.184;8.578;2022-10-17T05:07:14;11.20;;;8.75;;
23555;SDS011;11956;53.184;8.578;2022-10-17T05:10:15;13.48;;;8.75;;
23555;SDS011;11956;53.184;8.578;2022-10-17T05:13:19;14.32;;;8.77;;
23555;SDS011;11956;53.184;8.578;2022-10-17T05:16:21;11.65;;;8.63;;
23555;SDS011;11956;53.184;8.578;2022-10-17T05:19:23;9.30;;;7.50;;
23555;SDS011;11956;53.184;8.578;2022-10-17T05:22:25;14.13;;;9.32;;
23555;SDS011;11956;53.184;8.578;2022-10-17T05:25:26;13.35;;;9.30;;
23555;SDS011;11956;53.184;8.578;2022-10-17T05:28:27;16.30;;;9.85;;
23555;SDS011;11956;53.184;8.578;2022-10-17T05:31:32;10.23;;;8.40;;
23555;SDS011;11956;53.184;8.578;2022-10-17T05:34:33;15.25;;;9.27;;
23555;SDS011;11956;53.184;8.578;2022-10-17T05:37:34;12.15;;;9.35;;
23555;SDS011;11956;53.184;8.578;2022-10-17T05:40:36;11.02;;;8.15;;
23555;SDS011;11956;53.184;8.578;2022-10-17T05:43:38;12.25;;;9.80;;
23555;SDS011;11956;53.184;8.578;2022-10-17T05:46:40;12.70;;;9.60;;
23555;SDS011;11956;53.184;8.578;2022-10-17T05:49:41;12.32;;;9.50;;
23555;SDS011;11956;53.184;8.578;2022-10-17T05:52:43;14.55;;;9.77;;
23555;SDS011;11956;53.184;8.578;2022-10-17T05:55:58;15.93;;;10.18;;
23555;SDS011;11956;53.184;8.578;2022-10-17T05:59:03;10.10;;;8.65;;
23555;SDS011;11956;53.184;8.578;2022-10-17T06:02:17;12.88;;;9.52;;
23555;SDS011;11956;53.184;8.578;2022-10-17T06:05:18;11.32;;;9.95;;
23555;SDS011;11956;53.184;8.578;2022-10-17T06:08:20;15.05;;;9.80;;
23555;SDS011;11956;53.184;8.578;2022-10-17T06:11:23;12.77;;;9.60;;
23555;SDS011;11956;53.184;8.578;2022-10-17T06:14:24;12.23;;;9.00;;
23555;SDS011;11956;53.184;8.578;2022-10-17T06:17:29;10.48;;;9.38;;
23555;SDS011;11956;53.184;8.578;2022-10-17T06:20:31;13.27;;;8.68;;
23555;SDS011;11956;53.184;8.578;2022-10-17T06:23:32;10.00;;;8.40;;
23555;SDS011;11956;53.184;8.578;2022-10-17T06:26:54;9.20;;;7.97;;
23555;SDS011;11956;53.184;8.578;2022-10-17T06:29:55;9.52;;;7.28;;
23555;SDS011;11956;53.184;8.578;2022-10-17T06:32:56;8.15;;;7.05;;
23555;SDS011;11956;53.184;8.578;2022-10-17T06:35:57;8.75;;;6.25;;
23555;SDS011;11956;53.184;8.578;2022-10-17T06:38:59;6.78;;;5.30;;
23555;SDS011;11956;53.184;8.578;2022-10-17T06:42:06;8.02;;;5.82;;
23555;SDS011;11956;53.184;8.578;2022-10-17T06:45:37;7.28;;;4.97;;
23555;SDS011;11956;53.184;8.578;2022-10-17T06:48:50;8.10;;;5.75;;
23555;SDS011;11956;53.184;8.578;2022-10-17T06:52:02;8.45;;;5.50;;
23555;SDS011;11956;53.184;8.578;2022-10-17T06:55:17;8.25;;;5.43;;
23555;SDS011;11956;53.184;8.578;2022-10-17T06:58:41;5.80;;;4.80;;
23555;SDS011;11956;53.184;8.578;2022-10-17T07:01:55;6.30;;;4.00;;
23555;SDS011;11956;53.184;8.578;2022-10-17T07:04:58;10.40;;;4.97;;
23555;SDS011;11956;53.184;8.578;2022-10-17T07:07:59;8.50;;;4.90;;
23555;SDS011;11956;53.184;8.578;2022-10-17T07:11:10;6.15;;;4.95;;
23555;SDS011;11956;53.184;8.578;2022-10-17T07:14:15;8.48;;;5.15;;
23555;SDS011;11956;53.184;8.578;2022-10-17T07:17:17;8.52;;;5.55;;
23555;SDS011;11956;53.184;8.578;2022-10-17T07:20:18;7.85;;;5.30;;
23555;SDS011;11956;53.184;8.578;2022-10-17T07:23:20;5.70;;;4.72;;
23555;SDS011;11956;53.184;8.578;2022-10-17T07:26:22;4.40;;;3.80;;
23555;SDS011;11956;53.184;8.578;2022-10-17T07:29:23;4.93;;;3.35;;
23555;SDS011;11956;53.184;8.578;2022-10-17T07:32:34;5.68;;;4.25;;
23555;SDS011;11956;53.184;8.578;2022-10-17T07:35:36;5.28;;;4.50;;
23555;SDS011;11956;53.184;8.578;2022-10-17T07:38:40;8.07;;;5.13;;
23555;SDS011;11956;53.184;8.578;2022-10-17T07:41:41;6.13;;;4.50;;
23555;SDS011;11956;53.184;8.578;2022-10-17T07:44:42;5.68;;;5.13;;
23555;SDS011;11956;53.184;8.578;2022-10-17T07:47:46;6.75;;;4.95;;
23555;SDS011;11956;53.184;8.578;2022-10-17T07:50:49;6.43;;;4.57;;
23555;SDS011;11956;53.184;8.578;2022-10-17T07:53:50;7.25;;;4.75;;
23555;SDS011;11956;53.184;8.578;2022-10-17T07:56:51;7.13;;;4.50;;
23555;SDS011;11956;53.184;8.578;2022-10-17T07:59:51;8.88;;;4.00;;
23555;SDS011;11956;53.184;8.578;2022-10-17T08:02:53;6.00;;;4.20;;
23555;SDS011;11956;53.184;8.578;2022-10-17T08:05:57;5.50;;;3.97;;
23555;SDS011;11956;53.184;8.578;2022-10-17T08:09:02;9.75;;;4.90;;
23555;SDS011;11956;53.184;8.578;2022-10-17T08:12:03;7.00;;;3.97;;
23555;SDS011;11956;53.184;8.578;2022-10-17T08:15:05;5.65;;;3.83;;
23555;SDS011;11956;53.184;8.578;2022-10-17T08:18:07;8.27;;;3.90;;
23555;SDS011;11956;53.184;8.578;2022-10-17T08:21:08;4.70;;;3.30;;
23555;SDS011;11956;53.184;8.578;2022-10-17T08:24:12;5.88;;;3.22;;
23555;SDS011;11956;53.184;8.578;2022-10-17T08:27:13;6.50;;;3.50;;
23555;SDS011;11956;53.184;8.578;2022-10-17T08:30:14;8.80;;;3.70;;
23555;SDS011;11956;53.184;8.578;2022-10-17T08:33:16;4.05;;;3.65;;
23555;SDS011;11956;53.184;8.578;2022-10-17T08:36:17;4.97;;;3.95;;
23555;SDS011;11956;53.184;8.578;2022-10-17T08:39:19;5.60;;;4.00;;
23555;SDS011;11956;53.184;8.578;2022-10-17T08:46:15;6.25;;;3.60;;
23555;SDS011;11956;53.184;8.578;2022-10-17T08:49:12;6.25;;;3.25;;
23555;SDS011;11956;53.184;8.578;2022-10-17T08:52:39;5.55;;;3.10;;
23555;SDS011;11956;53.184;8.578;2022-10-17T08:55:49;5.18;;;3.17;;
23555;SDS011;11956;53.184;8.578;2022-10-17T08:58:52;7.18;;;3.15;;
23555;SDS011;11956;53.184;8.578;2022-10-17T09:02:19;5.03;;;3.00;;
23555;SDS011;11956;53.184;8.578;2022-10-17T09:05:32;3.85;;;2.75;;
23555;SDS011;11956;53.184;8.578;2022-10-17T09:09:02;3.40;;;2.70;;
23555;SDS011;11956;53.184;8.578;2022-10-17T09:18:40;6.13;;;3.65;;
23555;SDS011;11956;53.184;8.578;2022-10-17T09:21:57;5.88;;;3.05;;
23555;SDS011;11956;53.184;8.578;2022-10-17T09:25:04;6.38;;;3.35;;
23555;SDS011;11956;53.184;8.578;2022-10-17T09:28:17;6.97;;;3.60;;
23555;SDS011;11956;53.184;8.578;2022-10-17T09:31:39;5.90;;;3.10;;
23555;SDS011;11956;53.184;8.578;2022-10-17T09:34:48;5.53;;;3.28;;
23555;SDS011;11956;53.184;8.578;2022-10-17T09:37:51;9.52;;;3.45;;
23555;SDS011;11956;53.184;8.578;2022-10-17T09:40:54;4.38;;;3.33;;
23555;SDS011;11956;53.184;8.578;2022-10-17T09:44:10;6.13;;;3.53;;
23555;SDS011;11956;53.184;8.578;2022-10-17T09:47:34;5.03;;;3.20;;
23555;SDS011;11956;53.184;8.578;2022-10-17T09:50:41;6.15;;;3.08;;
23555;SDS011;11956;53.184;8.578;2022-10-17T09:53:46;14.40;;;3.83;;
23555;SDS011;11956;53.184;8.578;2022-10-17T10:00:05;5.68;;;3.47;;
23555;SDS011;11956;53.184;8.578;2022-10-17T10:03:20;6.95;;;3.80;;
23555;SDS011;11956;53.184;8.578;2022-10-17T10:06:23;9.20;;;4.68;;
23555;SDS011;11956;53.184;8.578;2022-10-17T10:09:24;6.22;;;4.00;;
23555;SDS011;11956;53.184;8.578;2022-10-17T10:12:37;5.88;;;4.30;;
23555;SDS011;11956;53.184;8.578;2022-10-17T10:15:45;8.50;;;4.90;;
23555;SDS011;11956;53.184;8.578;2022-10-17T10:18:49;7.22;;;4.15;;
23555;SDS011;11956;53.184;8.578;2022-10-17T10:21:55;9.55;;;4.72;;
23555;SDS011;11956;53.184;8.578;2022-10-17T10:25:17;7.30;;;4.50;;
23555;SDS011;11956;53.184;8.578;2022-10-17T10:28:18;9.38;;;5.00;;
23555;SDS011;11956;53.184;8.578;2022-10-17T10:31:32;6.97;;;4.43;;
23555;SDS011;11956;53.184;8.578;2022-10-17T10:37:54;10.73;;;4.72;;
23555;SDS011;11956;53.184;8.578;2022-10-17T10:41:02;7.78;;;4.40;;
23555;SDS011;11956;53.184;8.578;2022-10-17T10:44:10;7.68;;;4.53;;
23555;SDS011;11956;53.184;8.578;2022-10-17T10:47:24;7.35;;;4.28;;
23555;SDS011;11956;53.184;8.578;2022-10-17T10:50:29;6.78;;;4.70;;
23555;SDS011;11956;53.184;8.578;2022-10-17T10:54:19;7.85;;;4.85;;
23555;SDS011;11956;53.184;8.578;2022-10-17T10:57:28;5.97;;;5.03;;
23555;SDS011;11956;53.184;8.578;2022-10-17T11:00:31;7.10;;;4.63;;
23555;SDS011;11956;53.184;8.578;2022-10-17T11:03:39;7.70;;;4.28;;
23555;SDS011;11956;53.184;8.578;2022-10-17T11:07:14;8.48;;;4.63;;
23555;SDS011;11956;53.184;8.578;2022-10-17T11:10:40;8.20;;;4.80;;
23555;SDS011;11956;53.184;8.578;2022-10-17T11:14:07;7.38;;;4.97;;
23555;SDS011;11956;53.184;8.578;2022-10-17T11:17:31;11.48;;;5.20;;
23555;SDS011;11956;53.184;8.578;2022-10-17T11:20:44;8.18;;;4.93;;
23555;SDS011;11956;53.184;8.578;2022-10-17T11:27:25;10.60;;;5.80;;
23555;SDS011;11956;53.184;8.578;2022-10-17T11:30:38;9.30;;;5.75;;
23555;SDS011;11956;53.184;8.578;2022-10-17T11:33:49;10.77;;;5.28;;
23555;SDS011;11956;53.184;8.578;2022-10-17T11:37:09;7.72;;;5.10;;
23555;SDS011;11956;53.184;8.578;2022-10-17T11:40:35;8.85;;;5.13;;
23555;SDS011;11956;53.184;8.578;2022-10-17T11:46:58;9.55;;;5.35;;
23555;SDS011;11956;53.184;8.578;2022-10-17T11:50:47;9.05;;;5.88;;
23555;SDS011;11956;53.184;8.578;2022-10-17T11:54:05;12.05;;;6.07;;
23555;SDS011;11956;53.184;8.578;2022-10-17T12:03:39;8.80;;;5.57;;
23555;SDS011;11956;53.184;8.578;2022-10-17T12:07:04;8.07;;;6.00;;
23555;SDS011;11956;53.184;8.578;2022-10-17T12:10:38;9.98;;;6.90;;
23555;SDS011;11956;53.184;8.578;2022-10-17T12:13:48;9.40;;;7.32;;
23555;SDS011;11956;53.184;8.578;2022-10-17T12:16:52;11.00;;;8.82;;
23555;SDS011;11956;53.184;8.578;2022-10-17T12:19:53;13.32;;;8.70;;
23555;SDS011;11956;53.184;8.578;2022-10-17T12:23:30;11.35;;;8.98;;
23555;SDS011;11956;53.184;8.578;2022-10-17T12:26:31;12.32;;;9.52;;
23555;SDS011;11956;53.184;8.578;2022-10-17T12:29:32;18.50;;;15.77;;
23555;SDS011;11956;53.184;8.578;2022-10-17T12:32:33;13.70;;;10.15;;
23555;SDS011;11956;53.184;8.578;2022-10-17T12:35:35;15.55;;;10.77;;
23555;SDS011;11956;53.184;8.578;2022-10-17T12:38:37;14.52;;;10.93;;
23555;SDS011;11956;53.184;8.578;2022-10-17T12:44:39;14.90;;;10.98;;
23555;SDS011;11956;53.184;8.578;2022-10-17T12:47:40;12.18;;;10.82;;
23555;SDS011;11956;53.184;8.578;2022-10-17T12:54:16;18.95;;;12.63;;
23555;SDS011;11956;53.184;8.578;2022-10-17T12:57:23;15.18;;;12.43;;
23555;SDS011;11956;53.184;8.578;2022-10-17T13:00:59;15.00;;;12.80;;
23555;SDS011;11956;53.184;8.578;2022-10-17T13:04:01;16.02;;;13.68;;
23555;SDS011;11956;53.184;8.578;2022-10-17T13:07:05;18.88;;;15.52;;
23555;SDS011;11956;53.184;8.578;2022-10-17T13:10:25;18.83;;;15.68;;
23555;SDS011;11956;53.184;8.578;2022-10-17T13:13:34;22.88;;;17.20;;
23555;SDS011;11956;53.184;8.578;2022-10-17T13:16:51;19.58;;;16.88;;
23555;SDS011;11956;53.184;8.578;2022-10-17T13:19:58;15.18;;;12.90;;
23555;SDS011;11956;53.184;8.578;2022-10-17T13:22:59;17.55;;;14.23;;
23555;SDS011;11956;53.184;8.578;2022-10-17T13:26:01;15.05;;;13.52;;
23555;SDS011;11956;53.184;8.578;2022-10-17T13:29:22;16.38;;;13.90;;
23555;SDS011;11956;53.184;8.578;2022-10-17T13:32:25;17.38;;;15.35;;
23555;SDS011;11956;53.184;8.578;2022-10-17T13:35:35;18.83;;;14.68;;
23555;SDS011;11956;53.184;8.578;2022-10-17T13:38:38;16.35;;;14.27;;
23555;SDS011;11956;53.184;8.578;2022-10-17T13:41:39;18.25;;;14.13;;
23555;SDS011;11956;53.184;8.578;2022-10-17T13:44:40;17.95;;;16.05;;
23555;SDS011;11956;53.184;8.578;2022-10-17T13:47:41;17.35;;;14.90;;
23555;SDS011;11956;53.184;8.578;2022-10-17T13:50:43;20.40;;;16.38;;
23555;SDS011;11956;53.184;8.578;2022-10-17T13:53:50;16.63;;;14.25;;
23555;SDS011;11956;53.184;8.578;2022-10-17T13:56:54;16.38;;;13.82;;
23555;SDS011;11956;53.184;8.578;2022-10-17T13:59:57;16.67;;;14.35;;
23555;SDS011;11956;53.184;8.578;2022-10-17T14:03:19;11.60;;;10.20;;
23555;SDS011;11956;53.184;8.578;2022-10-17T14:06:25;13.18;;;10.90;;
23555;SDS011;11956;53.184;8.578;2022-10-17T14:09:27;12.05;;;10.75;;
23555;SDS011;11956;53.184;8.578;2022-10-17T14:12:30;13.32;;;11.63;;
23555;SDS011;11956;53.184;8.578;2022-10-17T14:15:32;13.73;;;11.00;;
23555;SDS011;11956;53.184;8.578;2022-10-17T14:18:35;9.88;;;8.88;;
23555;SDS011;11956;53.184;8.578;2022-10-17T14:21:36;10.15;;;9.10;;
23555;SDS011;11956;53.184;8.578;2022-10-17T14:24:37;12.65;;;8.95;;
23555;SDS011;11956;53.184;8.578;2022-10-17T14:27:53;18.25;;;12.43;;
23555;SDS011;11956;53.184;8.578;2022-10-17T14:31:24;15.77;;;9.40;;
23555;SDS011;11956;53.184;8.578;2022-10-17T14:34:30;10.70;;;8.02;;
23555;SDS011;11956;53.184;8.578;2022-10-17T14:37:40;13.80;;;9.20;;
23555;SDS011;11956;53.184;8.578;2022-10-17T14:44:02;8.80;;;7.90;;
23555;SDS011;11956;53.184;8.578;2022-10-17T14:47:14;9.35;;;7.68;;
23555;SDS011;11956;53.184;8.578;2022-10-17T14:50:29;10.15;;;7.32;;
23555;SDS011;11956;53.184;8.578;2022-10-17T14:53:31;13.07;;;9.40;;
23555;SDS011;11956;53.184;8.578;2022-10-17T14:56:34;11.63;;;8.23;;
23555;SDS011;11956;53.184;8.578;2022-10-17T15:02:46;13.80;;;8.88;;
23555;SDS011;11956;53.184;8.578;2022-10-17T15:05:50;10.88;;;9.27;;
23555;SDS011;11956;53.184;8.578;2022-10-17T15:08:52;11.23;;;8.97;;
23555;SDS011;11956;53.184;8.578;2022-10-17T15:12:02;12.70;;;10.32;;
23555;SDS011;11956;53.184;8.578;2022-10-17T15:15:07;14.70;;;11.18;;
23555;SDS011;11956;53.184;8.578;2022-10-17T15:18:09;14.35;;;10.93;;
23555;SDS011;11956;53.184;8.578;2022-10-17T15:21:14;12.25;;;10.30;;
23555;SDS011;11956;53.184;8.578;2022-10-17T15:24:18;12.50;;;9.88;;
23555;SDS011;11956;53.184;8.578;2022-10-17T15:27:20;15.43;;;10.75;;
23555;SDS011;11956;53.184;8.578;2022-10-17T15:30:25;11.80;;;10.55;;
23555;SDS011;11956;53.184;8.578;2022-10-17T15:33:31;15.80;;;11.27;;
23555;SDS011;11956;53.184;8.578;2022-10-17T15:36:34;13.20;;;10.88;;
23555;SDS011;11956;53.184;8.578;2022-10-17T15:39:39;13.52;;;11.05;;
23555;SDS011;11956;53.184;8.578;2022-10-17T15:42:40;13.48;;;11.48;;
23555;SDS011;11956;53.184;8.578;2022-10-17T15:45:41;13.57;;;10.77;;
23555;SDS011;11956;53.184;8.578;2022-10-17T15:48:42;11.57;;;9.77;;
23555;SDS011;11956;53.184;8.578;2022-10-17T15:51:43;12.98;;;10.18;;
23555;SDS011;11956;53.184;8.578;2022-10-17T15:54:44;11.63;;;9.73;;
23555;SDS011;11956;53.184;8.578;2022-10-17T15:57:45;17.15;;;12.35;;
23555;SDS011;11956;53.184;8.578;2022-10-17T16:00:47;14.38;;;10.85;;
23555;SDS011;11956;53.184;8.578;2022-10-17T16:03:48;13.25;;;10.23;;
23555;SDS011;11956;53.184;8.578;2022-10-17T16:06:49;12.02;;;10.50;;
23555;SDS011;11956;53.184;8.578;2022-10-17T16:09:50;12.30;;;10.52;;
23555;SDS011;11956;53.184;8.578;2022-10-17T16:12:51;12.85;;;10.57;;
23555;SDS011;11956;53.184;8.578;2022-10-17T16:15:52;11.80;;;10.60;;
23555;SDS011;11956;53.184;8.578;2022-10-17T16:18:53;13.80;;;11.60;;
23555;SDS011;11956;53.184;8.578;2022-10-17T16:21:55;14.15;;;10.07;;
23555;SDS011;11956;53.184;8.578;2022-10-17T16:24:57;14.07;;;12.23;;
23555;SDS011;11956;53.184;8.578;2022-10-17T16:28:06;13.68;;;11.32;;
23555;SDS011;11956;53.184;8.578;2022-10-17T16:31:20;13.02;;;11.65;;
23555;SDS011;11956;53.184;8.578;2022-10-17T16:34:27;12.68;;;11.25;;
23555;SDS011;11956;53.184;8.578;2022-10-17T16:37:30;17.45;;;14.63;;
23555;SDS011;11956;53.184;8.578;2022-10-17T16:40:31;14.50;;;12.18;;
23555;SDS011;11956;53.184;8.578;2022-10-17T16:43:32;17.33;;;13.82;;
23555;SDS011;11956;53.184;8.578;2022-10-17T16:46:35;14.57;;;12.73;;
23555;SDS011;11956;53.184;8.578;2022-10-17T16:49:37;20.27;;;16.05;;
23555;SDS011;11956;53.184;8.578;2022-10-17T16:52:38;19.25;;;15.75;;
23555;SDS011;11956;53.184;8.578;2022-10-17T16:55:39;19.35;;;16.63;;
23555;SDS011;11956;53.184;8.578;2022-10-17T16:58:40;17.90;;;14.90;;
23555;SDS011;11956;53.184;8.578;2022-10-17T17:01:42;16.05;;;14.35;;
23555;SDS011;11956;53.184;8.578;2022-10-17T17:04:43;23.60;;;18.67;;
23555;SDS011;11956;53.184;8.578;2022-10-17T17:07:44;16.98;;;15.18;;
23555;SDS011;11956;53.184;8.578;2022-10-17T17:10:47;19.38;;;15.00;;
23555;SDS011;11956;53.184;8.578;2022-10-17T17:13:53;17.27;;;14.55;;
23555;SDS011;11956;53.184;8.578;2022-10-17T17:16:56;18.83;;;15.27;;
23555;SDS011;11956;53.184;8.578;2022-10-17T17:23:14;15.10;;;13.07;;
23555;SDS011;11956;53.184;8.578;2022-10-17T17:26:15;14.98;;;12.73;;
23555;SDS011;11956;53.184;8.578;2022-10-17T17:29:19;14.55;;;11.90;;
23555;SDS011;11956;53.184;8.578;2022-10-17T17:32:21;14.87;;;12.67;;
23555;SDS011;11956;53.184;8.578;2022-10-17T17:35:22;16.92;;;14.30;;
23555;SDS011;11956;53.184;8.578;2022-10-17T17:38:23;12.05;;;9.65;;
23555;SDS011;11956;53.184;8.578;2022-10-17T17:41:25;11.32;;;10.10;;
23555;SDS011;11956;53.184;8.578;2022-10-17T17:44:26;12.20;;;9.52;;
23555;SDS011;11956;53.184;8.578;2022-10-17T17:47:27;14.15;;;11.75;;
23555;SDS011;11956;53.184;8.578;2022-10-17T17:50:30;11.80;;;9.73;;
23555;SDS011;11956;53.184;8.578;2022-10-17T17:53:32;9.68;;;8.75;;
23555;SDS011;11956;53.184;8.578;2022-10-17T17:56:33;12.38;;;9.90;;
23555;SDS011;11956;53.184;8.578;2022-10-17T17:59:34;11.30;;;10.00;;
23555;SDS011;11956;53.184;8.578;2022-10-17T18:02:37;10.57;;;9.50;;
23555;SDS011;11956;53.184;8.578;2022-10-17T18:05:38;9.13;;;7.93;;
23555;SDS011;11956;53.184;8.578;2022-10-17T18:08:42;8.52;;;7.57;;
23555;SDS011;11956;53.184;8.578;2022-10-17T18:11:44;10.35;;;9.23;;
23555;SDS011;11956;53.184;8.578;2022-10-17T18:14:46;8.43;;;7.20;;
23555;SDS011;11956;53.184;8.578;2022-10-17T18:17:47;9.85;;;8.55;;
23555;SDS011;11956;53.184;8.578;2022-10-17T18:20:48;9.88;;;7.63;;
23555;SDS011;11956;53.184;8.578;2022-10-17T18:23:49;9.38;;;8.38;;
23555;SDS011;11956;53.184;8.578;2022-10-17T18:26:50;30.83;;;22.23;;
23555;SDS011;11956;53.184;8.578;2022-10-17T18:29:55;11.45;;;9.10;;
23555;SDS011;11956;53.184;8.578;2022-10-17T18:32:55;11.68;;;9.40;;
23555;SDS011;11956;53.184;8.578;2022-10-17T18:35:58;9.82;;;8.82;;
23555;SDS011;11956;53.184;8.578;2022-10-17T18:39:06;8.63;;;6.55;;
23555;SDS011;11956;53.184;8.578;2022-10-17T18:42:07;7.45;;;6.75;;
23555;SDS011;11956;53.184;8.578;2022-10-17T18:45:08;8.30;;;7.40;;
23555;SDS011;11956;53.184;8.578;2022-10-17T18:48:10;10.90;;;8.60;;
23555;SDS011;11956;53.184;8.578;2022-10-17T18:51:12;8.32;;;7.13;;
23555;SDS011;11956;53.184;8.578;2022-10-17T18:54:17;10.45;;;8.77;;
23555;SDS011;11956;53.184;8.578;2022-10-17T18:57:20;9.35;;;7.60;;
23555;SDS011;11956;53.184;8.578;2022-10-17T19:00:21;8.63;;;7.80;;
23555;SDS011;11956;53.184;8.578;2022-10-17T19:03:22;7.50;;;6.80;;
23555;SDS011;11956;53.184;8.578;2022-10-17T19:06:25;8.55;;;7.57;;
23555;SDS011;11956;53.184;8.578;2022-10-17T19:09:30;7.95;;;7.13;;
23555;SDS011;11956;53.184;8.578;2022-10-17T19:12:31;10.70;;;8.82;;
23555;SDS011;11956;53.184;8.578;2022-10-17T19:15:32;15.30;;;11.50;;
23555;SDS011;11956;53.184;8.578;2022-10-17T19:18:33;11.38;;;9.95;;
23555;SDS011;11956;53.184;8.578;2022-10-17T19:21:35;10.00;;;8.98;;
23555;SDS011;11956;53.184;8.578;2022-10-17T19:24:36;10.48;;;8.70;;
23555;SDS011;11956;53.184;8.578;2022-10-17T19:27:37;10.70;;;9.25;;
23555;SDS011;11956;53.184;8.578;2022-10-17T19:30:40;11.18;;;9.25;;
23555;SDS011;11956;53.184;8.578;2022-10-17T19:33:41;11.63;;;10.43;;
23555;SDS011;11956;53.184;8.578;2022-10-17T19:36:42;11.43;;;9.55;;
23555;SDS011;11956;53.184;8.578;2022-10-17T19:39:43;13.23;;;10.80;;
23555;SDS011;11956;53.184;8.578;2022-10-17T19:42:44;8.68;;;7.78;;